Time,TemperatureF,DewpointF,PressureIn,WindDirection,WindDirectionDegrees,WindSpeedMPH,WindSpeedGustMPH,Humidity,HourlyPrecipIn,Conditions,Clouds,dailyrainin,SoftwareType,DateUTC
2013-11-23 00:01:00,35.1,28.6,30.27,NW,310,0.0,0.0,77,0.00,,,0.00,meteobridge,2013-11-23 05:01:00,
2013-11-23 00:03:00,35.1,28.2,30.27,NW,309,0.0,2.0,76,0.00,,,0.00,meteobridge,2013-11-23 05:03:00,
2013-11-23 00:08:00,35.1,28.2,30.27,West,281,0.0,0.9,76,0.00,,,0.00,meteobridge,2013-11-23 05:08:00,
2013-11-23 00:13:00,35.1,28.6,30.27,WNW,282,0.0,0.9,77,0.00,,,0.00,meteobridge,2013-11-23 05:13:00,
2013-11-23 00:18:00,35.1,28.2,30.28,WNW,299,0.9,0.9,76,0.00,,,0.00,meteobridge,2013-11-23 05:18:00,
2013-11-23 00:23:00,35.1,28.2,30.28,WNW,287,0.0,4.0,76,0.00,,,0.00,meteobridge,2013-11-23 05:23:00,
2013-11-23 00:28:00,35.1,28.2,30.28,NW,315,0.9,2.9,76,0.00,,,0.00,meteobridge,2013-11-23 05:28:00,
2013-11-23 00:33:00,35.1,27.9,30.28,NW,304,2.0,2.0,75,0.00,,,0.00,meteobridge,2013-11-23 05:33:00,
2013-11-23 00:39:00,35.1,27.9,30.28,WNW,302,2.0,2.9,75,0.00,,,0.00,meteobridge,2013-11-23 05:39:00,
2013-11-23 00:44:00,35.1,27.9,30.28,NW,304,0.0,0.9,75,0.00,,,0.00,meteobridge,2013-11-23 05:44:00,
2013-11-23 00:49:00,35.1,27.9,30.28,WNW,302,0.0,0.9,75,0.00,,,0.00,meteobridge,2013-11-23 05:49:00,
2013-11-23 00:54:00,35.1,27.9,30.28,NW,323,0.0,2.0,75,0.00,,,0.00,meteobridge,2013-11-23 05:54:00,
2013-11-23 01:00:00,35.1,28.2,30.28,NW,307,0.0,2.0,76,0.00,,,0.00,meteobridge,2013-11-23 06:00:00,
2013-11-23 01:05:00,35.1,28.2,30.28,WNW,292,0.0,0.9,76,0.00,,,0.00,meteobridge,2013-11-23 06:05:00,
2013-11-23 01:10:00,34.9,28.0,30.28,WNW,302,0.0,0.0,76,0.00,,,0.00,meteobridge,2013-11-23 06:10:00,
2013-11-23 01:15:00,34.7,27.9,30.28,NW,313,0.0,2.9,76,0.00,,,0.00,meteobridge,2013-11-23 06:15:00,
2013-11-23 01:20:00,34.7,27.7,30.28,NW,321,0.0,0.9,75,0.00,,,0.00,meteobridge,2013-11-23 06:20:00,
2013-11-23 01:25:00,34.5,27.7,30.28,NW,320,0.0,0.0,76,0.00,,,0.00,meteobridge,2013-11-23 06:25:00,
2013-11-23 01:30:00,34.3,27.5,30.27,West,279,0.0,2.0,76,0.00,,,0.00,meteobridge,2013-11-23 06:30:00,
2013-11-23 01:35:00,34.3,27.5,30.27,NW,304,0.9,2.0,76,0.00,,,0.00,meteobridge,2013-11-23 06:35:00,
2013-11-23 01:40:00,34.2,27.3,30.27,WNW,303,0.0,0.9,76,0.00,,,0.00,meteobridge,2013-11-23 06:40:00,
2013-11-23 01:46:00,34.2,27.3,30.28,NW,304,0.0,0.0,76,0.00,,,0.00,meteobridge,2013-11-23 06:46:00,
2013-11-23 01:51:00,34.0,27.1,30.28,WNW,296,0.0,0.9,76,0.00,,,0.00,meteobridge,2013-11-23 06:51:00,
2013-11-23 01:56:00,34.0,27.1,30.28,WNW,296,0.0,0.0,76,0.00,,,0.00,meteobridge,2013-11-23 06:56:00,
2013-11-23 02:01:00,33.6,27.1,30.28,WNW,296,0.0,0.0,77,0.00,,,0.00,meteobridge,2013-11-23 07:01:00,
2013-11-23 02:06:00,33.6,27.1,30.28,WNW,296,0.0,0.0,77,0.00,,,0.00,meteobridge,2013-11-23 07:06:00,
2013-11-23 02:11:00,33.6,27.5,30.28,WNW,296,0.0,0.9,78,0.00,,,0.00,meteobridge,2013-11-23 07:11:00,
2013-11-23 02:16:00,33.6,27.5,30.28,WNW,296,0.9,0.9,78,0.00,,,0.00,meteobridge,2013-11-23 07:16:00,
2013-11-23 02:21:00,33.8,27.7,30.28,WNW,296,0.0,0.0,78,0.00,,,0.00,meteobridge,2013-11-23 07:21:00,
2013-11-23 02:26:00,34.0,27.9,30.28,NW,309,0.0,0.9,78,0.00,,,0.00,meteobridge,2013-11-23 07:26:00,
2013-11-23 02:31:00,34.0,27.9,30.28,NW,311,0.0,2.0,78,0.00,,,0.00,meteobridge,2013-11-23 07:31:00,
2013-11-23 02:37:00,33.8,27.7,30.28,West,281,0.0,0.9,78,0.00,,,0.00,meteobridge,2013-11-23 07:37:00,
2013-11-23 02:42:00,33.6,27.5,30.28,West,272,0.0,0.9,78,0.00,,,0.00,meteobridge,2013-11-23 07:42:00,
2013-11-23 02:47:00,33.6,27.5,30.27,West,263,0.0,0.9,78,0.00,,,0.00,meteobridge,2013-11-23 07:47:00,
2013-11-23 02:52:00,33.6,27.5,30.27,WSW,246,0.0,0.9,78,0.00,,,0.00,meteobridge,2013-11-23 07:52:00,
2013-11-23 02:57:00,33.6,27.1,30.27,NW,304,2.9,2.9,77,0.00,,,0.00,meteobridge,2013-11-23 07:57:00,
2013-11-23 03:02:00,33.6,26.2,30.27,West,269,0.0,4.9,74,0.00,,,0.00,meteobridge,2013-11-23 08:02:00,
2013-11-23 03:07:00,33.4,26.4,30.27,West,269,0.0,0.9,75,0.00,,,0.00,meteobridge,2013-11-23 08:07:00,
2013-11-23 03:13:00,33.4,26.4,30.27,WNW,286,0.9,0.9,75,0.00,,,0.00,meteobridge,2013-11-23 08:13:00,
2013-11-23 03:18:00,33.4,26.8,30.26,NNW,342,0.0,0.9,76,0.00,,,0.00,meteobridge,2013-11-23 08:18:00,
2013-11-23 03:23:00,33.3,26.6,30.26,West,264,0.0,0.0,76,0.00,,,0.00,meteobridge,2013-11-23 08:23:00,
2013-11-23 03:28:00,33.3,26.6,30.26,NNW,343,0.0,0.9,76,0.00,,,0.00,meteobridge,2013-11-23 08:28:00,
2013-11-23 03:33:00,33.3,26.6,30.25,West,277,0.0,2.0,76,0.00,,,0.00,meteobridge,2013-11-23 08:33:00,
2013-11-23 03:39:00,33.3,26.8,30.25,West,279,0.0,0.0,77,0.00,,,0.00,meteobridge,2013-11-23 08:39:00,
2013-11-23 03:44:00,33.1,26.6,30.25,West,279,0.0,0.0,77,0.00,,,0.00,meteobridge,2013-11-23 08:44:00,
2013-11-23 03:49:00,32.7,26.2,30.24,West,277,0.0,0.0,77,0.00,,,0.00,meteobridge,2013-11-23 08:49:00,
2013-11-23 03:54:00,32.7,26.6,30.24,West,277,0.0,0.0,78,0.00,,,0.00,meteobridge,2013-11-23 08:54:00,
2013-11-23 03:59:00,32.7,27.0,30.24,West,277,0.0,0.0,79,0.00,,,0.00,meteobridge,2013-11-23 08:59:00,
2013-11-23 04:04:00,32.9,27.1,30.24,West,279,0.0,0.9,79,0.00,,,0.00,meteobridge,2013-11-23 09:04:00,
2013-11-23 04:09:00,33.1,27.0,30.24,West,276,0.0,0.0,78,0.00,,,0.00,meteobridge,2013-11-23 09:09:00,
2013-11-23 04:14:00,33.1,27.0,30.23,WSW,244,6.0,6.0,78,0.00,,,0.00,meteobridge,2013-11-23 09:14:00,
2013-11-23 04:19:00,33.1,27.0,30.23,WNW,299,0.0,0.0,78,0.00,,,0.00,meteobridge,2013-11-23 09:19:00,
2013-11-23 04:24:00,33.1,27.0,30.23,SW,225,0.9,2.9,78,0.00,,,0.00,meteobridge,2013-11-23 09:24:00,
2013-11-23 04:30:00,33.1,27.0,30.23,WNW,288,0.0,2.0,78,0.00,,,0.00,meteobridge,2013-11-23 09:30:00,
2013-11-23 04:35:00,32.9,27.1,30.23,WNW,302,2.0,2.9,79,0.00,,,0.00,meteobridge,2013-11-23 09:35:00,
2013-11-23 04:40:00,32.9,26.8,30.23,West,268,0.9,2.9,78,0.00,,,0.00,meteobridge,2013-11-23 09:40:00,
2013-11-23 04:45:00,32.7,26.1,30.23,WNW,299,2.0,4.0,76,0.00,,,0.00,meteobridge,2013-11-23 09:45:00,
2013-11-23 04:50:00,32.7,26.2,30.23,West,269,2.0,2.9,77,0.00,,,0.00,meteobridge,2013-11-23 09:50:00,
2013-11-23 04:55:00,32.7,26.2,30.23,WNW,291,0.9,2.9,77,0.00,,,0.00,meteobridge,2013-11-23 09:55:00,
2013-11-23 05:00:00,32.7,26.2,30.23,West,273,0.0,2.0,77,0.00,,,0.00,meteobridge,2013-11-23 10:00:00,
2013-11-23 05:05:00,32.5,26.1,30.23,West,280,0.0,4.0,77,0.00,,,0.00,meteobridge,2013-11-23 10:05:00,
2013-11-23 05:10:00,32.4,25.9,30.23,WNW,288,0.0,0.9,77,0.00,,,0.00,meteobridge,2013-11-23 10:10:00,
2013-11-23 05:15:00,32.2,25.7,30.23,WNW,301,0.9,2.0,77,0.00,,,0.00,meteobridge,2013-11-23 10:15:00,
2013-11-23 05:21:00,32.2,25.7,30.23,WSW,253,0.0,0.9,77,0.00,,,0.00,meteobridge,2013-11-23 10:21:00,
2013-11-23 05:26:00,32.4,25.9,30.23,WNW,302,0.9,2.0,77,0.00,,,0.00,meteobridge,2013-11-23 10:26:00,
2013-11-23 05:31:00,32.4,26.2,30.23,NW,318,0.9,0.9,78,0.00,,,0.00,meteobridge,2013-11-23 10:31:00,
2013-11-23 05:36:00,32.2,25.7,30.23,NW,304,2.9,2.9,77,0.00,,,0.00,meteobridge,2013-11-23 10:36:00,
2013-11-23 05:41:00,32.0,25.7,30.23,WNW,299,0.9,2.0,77,0.00,,,0.00,meteobridge,2013-11-23 10:41:00,
2013-11-23 05:46:00,31.8,25.5,30.23,West,263,0.0,2.0,77,0.00,,,0.00,meteobridge,2013-11-23 10:46:00,
2013-11-23 05:51:00,31.8,25.5,30.23,WSW,241,0.0,2.0,77,0.00,,,0.00,meteobridge,2013-11-23 10:51:00,
2013-11-23 05:56:00,31.8,25.7,30.23,NNW,342,0.0,2.0,78,0.00,,,0.00,meteobridge,2013-11-23 10:56:00,
2013-11-23 06:01:00,31.6,25.5,30.23,WSW,250,2.0,2.9,78,0.00,,,0.00,meteobridge,2013-11-23 11:01:00,
2013-11-23 06:07:00,31.6,25.5,30.23,West,281,0.0,0.0,78,0.00,,,0.00,meteobridge,2013-11-23 11:07:00,
2013-11-23 06:12:00,31.6,25.5,30.23,WSW,248,0.0,0.0,78,0.00,,,0.00,meteobridge,2013-11-23 11:12:00,
2013-11-23 06:17:00,31.3,25.5,30.24,WSW,247,0.0,0.9,79,0.00,,,0.00,meteobridge,2013-11-23 11:17:00,
2013-11-23 06:22:00,30.9,25.5,30.24,North,5,0.0,0.0,80,0.00,,,0.00,meteobridge,2013-11-23 11:22:00,
2013-11-23 06:27:00,30.7,25.5,30.24,WSW,251,0.9,0.9,81,0.00,,,0.00,meteobridge,2013-11-23 11:27:00,
2013-11-23 06:32:00,30.4,25.3,30.24,WSW,240,0.0,2.9,81,0.00,,,0.00,meteobridge,2013-11-23 11:32:00,
2013-11-23 06:37:00,30.0,25.2,30.24,SSW,202,0.0,0.9,82,0.00,,,0.00,meteobridge,2013-11-23 11:37:00,
2013-11-23 06:42:00,29.8,25.3,30.24,WNW,300,0.0,0.9,83,0.00,,,0.00,meteobridge,2013-11-23 11:42:00,
2013-11-23 06:47:00,29.7,25.2,30.24,SW,222,0.0,0.9,83,0.00,,,0.00,meteobridge,2013-11-23 11:47:00,
2013-11-23 06:53:00,29.3,25.2,30.24,SW,222,0.0,0.0,84,0.00,,,0.00,meteobridge,2013-11-23 11:53:00,
2013-11-23 06:58:00,28.9,25.0,30.24,SW,222,0.0,0.9,85,0.00,,,0.00,meteobridge,2013-11-23 11:58:00,
2013-11-23 07:03:00,28.9,25.3,30.24,NNW,341,0.0,4.0,86,0.00,,,0.00,meteobridge,2013-11-23 12:03:00,
2013-11-23 07:08:00,28.8,25.2,30.24,WSW,250,0.0,0.0,86,0.00,,,0.00,meteobridge,2013-11-23 12:08:00,
2013-11-23 07:13:00,28.8,25.3,30.24,West,264,0.9,2.9,87,0.00,,,0.00,meteobridge,2013-11-23 12:13:00,
2013-11-23 07:18:00,28.8,25.3,30.24,SW,233,2.0,2.0,87,0.00,,,0.00,meteobridge,2013-11-23 12:18:00,
2013-11-23 07:23:00,28.6,25.2,30.24,WSW,249,0.9,2.0,87,0.00,,,0.00,meteobridge,2013-11-23 12:23:00,
2013-11-23 07:28:00,28.6,25.2,30.24,WSW,249,2.0,4.0,87,0.00,,,0.00,meteobridge,2013-11-23 12:28:00,
2013-11-23 07:34:00,28.6,25.2,30.23,SW,221,2.9,4.9,87,0.00,,,0.00,meteobridge,2013-11-23 12:34:00,
2013-11-23 07:39:00,28.8,25.7,30.23,WSW,244,0.0,2.0,88,0.00,,,0.00,meteobridge,2013-11-23 12:39:00,
2013-11-23 07:44:00,28.8,25.3,30.23,NNE,32,0.0,0.9,87,0.00,,,0.00,meteobridge,2013-11-23 12:44:00,
2013-11-23 07:49:00,28.8,25.3,30.23,SW,236,0.0,2.9,87,0.00,,,0.00,meteobridge,2013-11-23 12:49:00,
2013-11-23 07:55:00,28.6,25.2,30.23,NW,304,0.0,2.0,87,0.00,,,0.00,meteobridge,2013-11-23 12:55:00,
2013-11-23 08:00:00,28.6,25.5,30.24,SW,232,2.9,4.0,88,0.00,,,0.00,meteobridge,2013-11-23 13:00:00,
2013-11-23 08:05:00,28.8,25.7,30.24,SW,234,0.9,2.9,88,0.00,,,0.00,meteobridge,2013-11-23 13:05:00,
2013-11-23 08:10:00,28.9,25.5,30.24,SW,232,0.0,2.0,87,0.00,,,0.00,meteobridge,2013-11-23 13:10:00,
2013-11-23 08:15:00,28.9,25.5,30.23,SW,221,0.9,2.0,87,0.00,,,0.00,meteobridge,2013-11-23 13:15:00,
2013-11-23 08:20:00,28.9,25.5,30.23,SW,232,0.0,2.9,87,0.00,,,0.00,meteobridge,2013-11-23 13:20:00,
2013-11-23 08:25:00,28.9,25.5,30.23,WSW,246,2.0,8.1,87,0.00,,,0.00,meteobridge,2013-11-23 13:25:00,
2013-11-23 08:30:00,29.1,25.7,30.22,WNW,296,2.9,4.9,87,0.00,,,0.00,meteobridge,2013-11-23 13:30:00,
2013-11-23 08:35:00,29.5,26.1,30.22,WSW,251,0.0,6.9,87,0.00,,,0.00,meteobridge,2013-11-23 13:35:00,
2013-11-23 08:40:00,29.7,26.2,30.22,SW,219,2.0,2.9,87,0.00,,,0.00,meteobridge,2013-11-23 13:40:00,
2013-11-23 08:45:00,29.8,26.2,30.23,WNW,289,0.0,0.9,86,0.00,,,0.00,meteobridge,2013-11-23 13:45:00,
2013-11-23 08:51:00,29.8,26.2,30.23,WSW,239,0.9,2.9,86,0.00,,,0.00,meteobridge,2013-11-23 13:51:00,
2013-11-23 08:56:00,29.8,26.2,30.23,SW,232,2.9,2.9,86,0.00,,,0.00,meteobridge,2013-11-23 13:56:00,
2013-11-23 09:01:00,30.0,26.4,30.22,SW,223,0.0,2.9,86,0.00,,,0.00,meteobridge,2013-11-23 14:01:00,
2013-11-23 09:06:00,30.4,26.8,30.22,West,275,2.0,2.0,86,0.00,,,0.00,meteobridge,2013-11-23 14:06:00,
2013-11-23 09:11:00,30.6,26.6,30.22,SSE,164,4.9,4.9,85,0.00,,,0.00,meteobridge,2013-11-23 14:11:00,
2013-11-23 09:16:00,30.7,26.8,30.23,West,274,0.9,4.0,85,0.00,,,0.00,meteobridge,2013-11-23 14:16:00,
2013-11-23 09:21:00,30.9,26.6,30.23,WSW,257,0.9,4.9,84,0.00,,,0.00,meteobridge,2013-11-23 14:21:00,
2013-11-23 09:26:00,30.7,26.4,30.23,WSW,256,2.0,2.0,84,0.00,,,0.00,meteobridge,2013-11-23 14:26:00,
2013-11-23 09:31:00,31.5,27.1,30.23,WSW,252,2.9,2.9,84,0.00,,,0.00,meteobridge,2013-11-23 14:31:00,
2013-11-23 09:36:00,31.6,27.1,30.23,WSW,250,2.0,6.0,83,0.00,,,0.00,meteobridge,2013-11-23 14:36:00,
2013-11-23 09:41:00,31.8,27.0,30.23,WNW,293,0.9,2.0,82,0.00,,,0.00,meteobridge,2013-11-23 14:41:00,
2013-11-23 09:46:00,31.6,26.8,30.22,West,269,0.9,4.9,82,0.00,,,0.00,meteobridge,2013-11-23 14:46:00,
2013-11-23 09:51:00,31.8,27.0,30.22,West,272,0.9,2.9,82,0.00,,,0.00,meteobridge,2013-11-23 14:51:00,
2013-11-23 09:56:00,32.0,27.1,30.22,WNW,288,0.9,2.9,82,0.00,,,0.00,meteobridge,2013-11-23 14:56:00,
2013-11-23 10:01:00,32.2,27.3,30.23,WSW,254,0.9,2.9,82,0.00,,,0.00,meteobridge,2013-11-23 15:01:00,
2013-11-23 10:07:00,32.2,27.7,30.23,WSW,253,0.0,2.0,83,0.00,,,0.00,meteobridge,2013-11-23 15:07:00,
2013-11-23 10:12:00,32.4,27.9,30.23,West,264,0.0,2.9,83,0.00,,,0.00,meteobridge,2013-11-23 15:12:00,
2013-11-23 10:17:00,32.5,27.7,30.23,WNW,302,0.9,2.0,82,0.00,,,0.00,meteobridge,2013-11-23 15:17:00,
2013-11-23 10:22:00,32.7,27.9,30.23,NNE,28,2.0,2.9,82,0.00,,,0.00,meteobridge,2013-11-23 15:22:00,
2013-11-23 10:27:00,33.1,27.5,30.23,NNW,328,2.0,2.9,80,0.00,,,0.00,meteobridge,2013-11-23 15:27:00,
2013-11-23 10:32:00,33.3,25.9,30.22,NW,318,4.0,4.0,74,0.00,,,0.00,meteobridge,2013-11-23 15:32:00,
2013-11-23 10:37:00,33.1,24.4,30.22,NW,311,6.0,6.0,70,0.00,,,0.00,meteobridge,2013-11-23 15:37:00,
2013-11-23 10:42:00,33.1,24.4,30.22,NW,315,0.9,4.9,70,0.00,,,0.00,meteobridge,2013-11-23 15:42:00,
2013-11-23 10:47:00,32.7,23.7,30.22,West,281,2.9,13.0,69,0.00,,,0.00,meteobridge,2013-11-23 15:47:00,
2013-11-23 10:52:00,33.1,24.1,30.22,WNW,290,4.0,8.9,69,0.00,,,0.00,meteobridge,2013-11-23 15:52:00,
2013-11-23 10:57:00,32.7,23.0,30.22,WNW,293,2.0,6.0,67,0.00,,,0.00,meteobridge,2013-11-23 15:57:00,
2013-11-23 11:02:00,33.1,23.0,30.22,West,267,2.0,6.9,66,0.00,,,0.00,meteobridge,2013-11-23 16:02:00,
2013-11-23 11:07:00,33.4,23.0,30.22,NW,311,2.0,4.0,65,0.00,,,0.00,meteobridge,2013-11-23 16:07:00,
2013-11-23 11:12:00,33.6,22.8,30.22,NW,311,2.9,2.9,64,0.00,,,0.00,meteobridge,2013-11-23 16:12:00,
2013-11-23 11:17:00,34.0,22.6,30.22,WNW,290,2.9,6.0,63,0.00,,,0.00,meteobridge,2013-11-23 16:17:00,
2013-11-23 11:22:00,34.2,22.8,30.22,NW,304,6.0,6.9,63,0.00,,,0.00,meteobridge,2013-11-23 16:22:00,
2013-11-23 11:27:00,34.0,22.6,30.22,WSW,250,2.0,6.0,63,0.00,,,0.00,meteobridge,2013-11-23 16:27:00,
2013-11-23 11:32:00,34.2,23.2,30.21,WNW,302,2.9,4.0,64,0.00,,,0.00,meteobridge,2013-11-23 16:32:00,
2013-11-23 11:37:00,33.8,22.5,30.21,SW,232,2.9,4.0,63,0.00,,,0.00,meteobridge,2013-11-23 16:37:00,
2013-11-23 11:42:00,33.6,22.5,30.21,WNW,294,2.9,6.0,63,0.00,,,0.00,meteobridge,2013-11-23 16:42:00,
2013-11-23 11:47:00,33.3,22.5,30.21,West,267,2.0,6.9,64,0.00,,,0.00,meteobridge,2013-11-23 16:47:00,
2013-11-23 11:52:00,33.1,22.6,30.21,WNW,294,6.9,6.9,65,0.00,,,0.00,meteobridge,2013-11-23 16:52:00,
2013-11-23 11:57:00,32.9,22.5,30.21,WNW,285,2.0,4.9,65,0.00,,,0.00,meteobridge,2013-11-23 16:57:00,
2013-11-23 12:03:00,32.7,23.0,30.21,West,273,0.9,6.9,67,0.00,,,0.00,meteobridge,2013-11-23 17:03:00,
2013-11-23 12:08:00,32.5,22.5,30.21,WNW,290,2.0,6.0,66,0.00,,,0.00,meteobridge,2013-11-23 17:08:00,
2013-11-23 12:13:00,32.4,23.0,30.21,WSW,237,4.0,6.0,68,0.00,,,0.00,meteobridge,2013-11-23 17:13:00,
2013-11-23 12:18:00,32.2,23.9,30.21,NW,307,4.0,6.0,71,0.00,,,0.00,meteobridge,2013-11-23 17:18:00,
2013-11-23 12:23:00,31.6,23.9,30.21,NW,318,4.9,8.1,73,0.00,,,0.00,meteobridge,2013-11-23 17:23:00,
2013-11-23 12:28:00,31.6,23.9,30.21,WNW,301,2.9,6.0,73,0.00,,,0.00,meteobridge,2013-11-23 17:28:00,
2013-11-23 12:33:00,31.6,23.0,30.20,West,263,0.9,4.9,70,0.00,,,0.00,meteobridge,2013-11-23 17:33:00,
2013-11-23 12:38:00,31.8,23.2,30.20,NW,311,0.9,4.0,70,0.00,,,0.00,meteobridge,2013-11-23 17:38:00,
2013-11-23 12:43:00,31.8,22.8,30.20,NW,304,4.9,6.9,69,0.00,,,0.00,meteobridge,2013-11-23 17:43:00,
2013-11-23 12:48:00,31.5,22.8,30.20,NNW,328,2.0,12.1,70,0.00,,,0.00,meteobridge,2013-11-23 17:48:00,
2013-11-23 12:53:00,31.3,23.4,30.20,WNW,301,4.0,6.0,72,0.00,,,0.00,meteobridge,2013-11-23 17:53:00,
2013-11-23 12:58:00,30.9,23.0,30.20,WNW,290,2.0,6.9,72,0.00,,,0.00,meteobridge,2013-11-23 17:58:00,
2013-11-23 13:03:00,30.9,23.0,30.20,West,281,2.0,13.0,72,0.00,,,0.00,meteobridge,2013-11-23 18:03:00,
2013-11-23 13:08:00,30.7,22.8,30.20,West,277,2.9,4.0,72,0.00,,,0.00,meteobridge,2013-11-23 18:08:00,
2013-11-23 13:13:00,30.9,22.6,30.20,West,267,2.0,2.9,71,0.00,,,0.00,meteobridge,2013-11-23 18:13:00,
2013-11-23 13:18:00,31.3,22.3,30.20,NW,313,2.0,6.0,69,0.00,,,0.00,meteobridge,2013-11-23 18:18:00,
2013-11-23 13:23:00,31.6,22.3,30.20,NW,310,4.9,8.9,68,0.00,,,0.00,meteobridge,2013-11-23 18:23:00,
2013-11-23 13:28:00,31.6,22.6,30.20,NNW,336,2.9,6.0,69,0.00,,,0.00,meteobridge,2013-11-23 18:28:00,
2013-11-23 13:33:00,31.1,23.2,30.20,NE,46,4.9,8.1,72,0.00,,,0.00,meteobridge,2013-11-23 18:33:00,
2013-11-23 13:38:00,30.0,24.3,30.20,NW,318,6.0,8.9,79,0.00,,,0.00,meteobridge,2013-11-23 18:38:00,
2013-11-23 13:43:00,28.8,24.8,30.20,NE,49,0.9,4.9,85,0.00,,,0.00,meteobridge,2013-11-23 18:43:00,
2013-11-23 13:48:00,28.2,25.2,30.21,NW,321,0.9,2.9,88,0.00,,,0.00,meteobridge,2013-11-23 18:48:00,
2013-11-23 13:53:00,28.6,26.1,30.21,NNW,347,2.0,2.9,90,0.00,,,0.00,meteobridge,2013-11-23 18:53:00,
2013-11-23 13:58:00,28.8,26.2,30.21,NW,311,4.0,4.0,90,0.00,,,0.00,meteobridge,2013-11-23 18:58:00,
2013-11-23 14:04:00,28.9,26.1,30.20,WNW,300,2.9,8.1,89,0.00,,,0.00,meteobridge,2013-11-23 19:04:00,
2013-11-23 14:08:00,28.9,25.3,30.20,WNW,292,2.0,10.1,86,0.00,,,0.00,meteobridge,2013-11-23 19:08:00,
2013-11-23 14:14:00,29.1,24.3,30.20,WNW,287,2.9,8.1,82,0.00,,,0.00,meteobridge,2013-11-23 19:14:00,
2013-11-23 14:19:00,29.3,23.4,30.21,WNW,295,6.9,6.9,78,0.00,,,0.00,meteobridge,2013-11-23 19:19:00,
2013-11-23 14:24:00,29.3,22.6,30.21,WSW,250,2.0,8.9,76,0.00,,,0.00,meteobridge,2013-11-23 19:24:00,
2013-11-23 14:29:00,29.5,22.3,30.21,NNW,340,4.0,8.1,74,0.00,,,0.00,meteobridge,2013-11-23 19:29:00,
2013-11-23 14:34:00,29.5,22.3,30.21,WSW,245,4.9,8.9,74,0.00,,,0.00,meteobridge,2013-11-23 19:34:00,
2013-11-23 14:39:00,28.9,22.6,30.21,NNW,329,4.9,8.1,77,0.00,,,0.00,meteobridge,2013-11-23 19:39:00,
2013-11-23 14:44:00,28.6,21.0,30.21,WNW,295,4.9,8.9,73,0.00,,,0.00,meteobridge,2013-11-23 19:44:00,
2013-11-23 14:49:00,28.6,21.0,30.23,NW,323,4.0,11.0,73,0.00,,,0.00,meteobridge,2013-11-23 19:49:00,
2013-11-23 14:54:00,28.0,20.5,30.23,SW,229,4.9,11.0,73,0.00,,,0.00,meteobridge,2013-11-23 19:54:00,
2013-11-23 14:59:00,27.9,19.4,30.23,NW,304,6.0,13.0,70,0.00,,,0.00,meteobridge,2013-11-23 19:59:00,
2013-11-23 15:04:00,28.2,18.3,30.23,NW,311,6.0,8.9,66,0.00,,,0.00,meteobridge,2013-11-23 20:04:00,
2013-11-23 15:09:00,28.6,17.6,30.23,West,277,8.1,16.1,63,0.00,,,0.00,meteobridge,2013-11-23 20:09:00,
2013-11-23 15:14:00,28.6,17.6,30.24,NW,307,4.0,12.1,63,0.00,,,0.00,meteobridge,2013-11-23 20:14:00,
2013-11-23 15:19:00,28.8,18.1,30.24,WNW,299,4.0,10.1,64,0.00,,,0.00,meteobridge,2013-11-23 20:19:00,
2013-11-23 15:24:00,28.6,17.6,30.24,West,279,2.9,8.9,63,0.00,,,0.00,meteobridge,2013-11-23 20:24:00,
2013-11-23 15:29:00,28.4,17.1,30.25,NNW,345,2.0,10.1,62,0.00,,,0.00,meteobridge,2013-11-23 20:29:00,
2013-11-23 15:35:00,28.2,15.3,30.25,NW,307,2.9,14.1,58,0.00,,,0.00,meteobridge,2013-11-23 20:35:00,
2013-11-23 15:40:00,28.2,15.8,30.25,NNW,347,2.0,4.9,59,0.00,,,0.00,meteobridge,2013-11-23 20:40:00,
2013-11-23 15:45:00,28.2,15.3,30.25,WNW,302,6.9,8.9,58,0.00,,,0.00,meteobridge,2013-11-23 20:45:00,
2013-11-23 15:50:00,28.0,14.4,30.25,WNW,291,4.0,8.1,56,0.00,,,0.00,meteobridge,2013-11-23 20:50:00,
2013-11-23 15:55:00,28.0,15.3,30.25,NW,306,4.9,6.0,58,0.00,,,0.00,meteobridge,2013-11-23 20:55:00,
2013-11-23 16:00:00,28.0,15.3,30.25,WNW,299,4.0,6.9,58,0.00,,,0.00,meteobridge,2013-11-23 21:00:00,
2013-11-23 16:05:00,27.9,15.4,30.25,NNW,333,6.9,12.1,59,0.00,,,0.00,meteobridge,2013-11-23 21:05:00,
2013-11-23 16:10:00,27.9,15.8,30.25,WNW,299,4.0,6.9,60,0.00,,,0.00,meteobridge,2013-11-23 21:10:00,
2013-11-23 16:15:00,27.7,14.9,30.27,NW,323,4.9,8.9,58,0.00,,,0.00,meteobridge,2013-11-23 21:15:00,
2013-11-23 16:20:00,27.5,13.1,30.27,NW,315,4.9,11.0,54,0.00,,,0.00,meteobridge,2013-11-23 21:20:00,
2013-11-23 16:25:00,27.5,13.5,30.27,NW,321,4.0,13.0,55,0.00,,,0.00,meteobridge,2013-11-23 21:25:00,
2013-11-23 16:30:00,27.5,13.5,30.27,NNW,333,6.9,6.9,55,0.00,,,0.00,meteobridge,2013-11-23 21:30:00,
2013-11-23 16:35:00,27.3,12.9,30.27,WNW,302,4.9,10.1,54,0.00,,,0.00,meteobridge,2013-11-23 21:35:00,
2013-11-23 16:41:00,27.3,14.5,30.27,WSW,249,6.9,6.9,58,0.00,,,0.00,meteobridge,2013-11-23 21:41:00,
2013-11-23 16:46:00,27.3,14.9,30.28,WNW,295,4.9,10.1,59,0.00,,,0.00,meteobridge,2013-11-23 21:46:00,
2013-11-23 16:51:00,27.1,16.9,30.28,NW,311,2.0,8.9,65,0.00,,,0.00,meteobridge,2013-11-23 21:51:00,
2013-11-23 16:56:00,26.4,19.2,30.28,NE,40,4.0,8.1,74,0.00,,,0.00,meteobridge,2013-11-23 21:56:00,
2013-11-23 17:01:00,26.2,18.5,30.29,NNW,334,4.0,8.9,72,0.00,,,0.00,meteobridge,2013-11-23 22:01:00,
2013-11-23 17:06:00,26.2,17.4,30.29,WNW,286,4.0,4.9,69,0.00,,,0.00,meteobridge,2013-11-23 22:06:00,
2013-11-23 17:11:00,26.2,14.2,30.29,WNW,296,2.0,11.0,60,0.00,,,0.00,meteobridge,2013-11-23 22:11:00,
2013-11-23 17:16:00,26.2,14.2,30.29,WNW,292,6.9,21.0,60,0.00,,,0.00,meteobridge,2013-11-23 22:16:00,
2013-11-23 17:21:00,25.7,17.2,30.29,WNW,295,10.1,14.1,70,0.00,,,0.00,meteobridge,2013-11-23 22:21:00,
2013-11-23 17:26:00,25.2,18.0,30.29,WSW,250,2.9,6.9,74,0.00,,,0.00,meteobridge,2013-11-23 22:26:00,
2013-11-23 17:31:00,25.0,16.9,30.30,West,269,8.9,8.9,71,0.00,,,0.00,meteobridge,2013-11-23 22:31:00,
2013-11-23 17:36:00,25.3,15.3,30.30,NW,315,2.9,13.0,65,0.00,,,0.00,meteobridge,2013-11-23 22:36:00,
2013-11-23 17:41:00,25.5,13.6,30.30,WNW,296,2.9,10.1,60,0.00,,,0.00,meteobridge,2013-11-23 22:41:00,
2013-11-23 17:46:00,25.5,13.1,30.31,NW,309,4.9,10.1,59,0.00,,,0.00,meteobridge,2013-11-23 22:46:00,
2013-11-23 17:51:00,25.5,12.4,30.31,WNW,286,8.9,12.1,57,0.00,,,0.00,meteobridge,2013-11-23 22:51:00,
2013-11-23 17:56:00,25.5,12.7,30.31,NW,315,2.0,6.0,58,0.00,,,0.00,meteobridge,2013-11-23 22:56:00,
2013-11-23 18:01:00,25.5,13.1,30.32,North,350,4.0,6.9,59,0.00,,,0.00,meteobridge,2013-11-23 23:01:00,
2013-11-23 18:06:00,25.3,12.6,30.32,WNW,294,4.0,13.0,58,0.00,,,0.00,meteobridge,2013-11-23 23:06:00,
2013-11-23 18:09:00,25.2,13.3,30.32,WNW,301,6.9,8.9,60,0.00,,,0.00,meteobridge,2013-11-23 23:09:00,
2013-11-23 18:14:00,25.2,12.9,30.32,West,275,4.0,4.0,59,0.00,,,0.00,meteobridge,2013-11-23 23:14:00,
2013-11-23 18:19:00,25.2,12.4,30.32,NW,309,6.9,6.9,58,0.00,,,0.00,meteobridge,2013-11-23 23:19:00,
2013-11-23 18:24:00,25.2,12.9,30.32,NW,323,6.9,8.9,59,0.00,,,0.00,meteobridge,2013-11-23 23:24:00,
2013-11-23 18:29:00,24.8,14.0,30.33,NW,311,4.0,6.9,63,0.00,,,0.00,meteobridge,2013-11-23 23:29:00,
2013-11-23 18:34:00,24.6,14.5,30.33,NNE,15,4.9,10.1,65,0.00,,,0.00,meteobridge,2013-11-23 23:34:00,
2013-11-23 18:39:00,24.4,14.7,30.33,NW,304,8.9,10.1,66,0.00,,,0.00,meteobridge,2013-11-23 23:39:00,
2013-11-23 18:45:00,24.3,15.3,30.33,WNW,284,13.0,13.0,68,0.00,,,0.00,meteobridge,2013-11-23 23:45:00,
2013-11-23 18:50:00,23.7,16.7,30.33,NW,326,2.0,4.9,74,0.00,,,0.00,meteobridge,2013-11-23 23:50:00,
2013-11-23 18:55:00,23.4,16.9,30.33,WNW,290,6.0,13.0,76,0.00,,,0.00,meteobridge,2013-11-23 23:55:00,
2013-11-23 19:00:00,23.5,15.8,30.34,NW,308,4.9,8.9,72,0.00,,,0.00,meteobridge,2013-11-24 00:00:00,
2013-11-23 19:05:00,23.2,15.3,30.34,NW,307,6.9,10.1,71,0.00,,,0.00,meteobridge,2013-11-24 00:05:00,
2013-11-23 19:10:00,23.4,14.4,30.34,NW,320,4.9,11.0,68,0.00,,,0.00,meteobridge,2013-11-24 00:10:00,
2013-11-23 19:15:00,23.5,13.1,30.34,WNW,285,2.9,11.0,64,0.00,,,0.00,meteobridge,2013-11-24 00:15:00,
2013-11-23 19:20:00,23.7,12.9,30.34,NW,317,4.0,8.1,63,0.00,,,0.00,meteobridge,2013-11-24 00:20:00,
2013-11-23 19:25:00,23.9,11.3,30.34,WNW,301,4.9,15.0,58,0.00,,,0.00,meteobridge,2013-11-24 00:25:00,
2013-11-23 19:30:00,24.1,11.1,30.34,NW,304,6.0,13.0,57,0.00,,,0.00,meteobridge,2013-11-24 00:30:00,
2013-11-23 19:35:00,24.1,10.6,30.34,WNW,289,2.9,10.1,56,0.00,,,0.00,meteobridge,2013-11-24 00:35:00,
2013-11-23 19:40:00,24.1,9.0,30.34,NW,311,4.0,13.0,52,0.00,,,0.00,meteobridge,2013-11-24 00:40:00,
2013-11-23 19:45:00,24.1,9.0,30.35,NNW,328,2.9,8.1,52,0.00,,,0.00,meteobridge,2013-11-24 00:45:00,
2013-11-23 19:50:00,24.1,9.0,30.35,NNE,28,8.1,8.1,52,0.00,,,0.00,meteobridge,2013-11-24 00:50:00,
2013-11-23 19:55:00,24.1,8.1,30.35,West,263,6.0,13.0,50,0.00,,,0.00,meteobridge,2013-11-24 00:55:00,
2013-11-23 20:00:00,24.1,7.7,30.35,West,276,0.9,8.1,49,0.00,,,0.00,meteobridge,2013-11-24 01:00:00,
2013-11-23 20:05:00,23.9,7.9,30.35,WNW,292,6.0,6.9,50,0.00,,,0.00,meteobridge,2013-11-24 01:05:00,
2013-11-23 20:10:00,23.9,8.8,30.35,WNW,301,2.9,8.1,52,0.00,,,0.00,meteobridge,2013-11-24 01:10:00,
2013-11-23 20:15:00,23.7,9.9,30.36,NW,309,2.9,8.9,55,0.00,,,0.00,meteobridge,2013-11-24 01:15:00,
2013-11-23 20:20:00,23.5,9.7,30.36,NNW,336,8.1,8.1,55,0.00,,,0.00,meteobridge,2013-11-24 01:20:00,
2013-11-23 20:26:00,23.5,10.2,30.36,West,281,6.0,14.1,56,0.00,,,0.00,meteobridge,2013-11-24 01:26:00,
2013-11-23 20:31:00,23.4,10.0,30.36,NNW,346,6.9,11.0,56,0.00,,,0.00,meteobridge,2013-11-24 01:31:00,
2013-11-23 20:36:00,23.2,9.0,30.36,NW,311,4.9,16.1,54,0.00,,,0.00,meteobridge,2013-11-24 01:36:00,
2013-11-23 20:41:00,23.2,8.2,30.36,WNW,290,10.1,10.1,52,0.00,,,0.00,meteobridge,2013-11-24 01:41:00,
2013-11-23 20:46:00,23.4,8.8,30.37,NNE,13,8.1,8.1,53,0.00,,,0.00,meteobridge,2013-11-24 01:46:00,
2013-11-23 20:51:00,23.4,8.4,30.37,WNW,302,4.9,6.9,52,0.00,,,0.00,meteobridge,2013-11-24 01:51:00,
2013-11-23 20:56:00,23.4,7.9,30.37,NW,321,0.9,4.9,51,0.00,,,0.00,meteobridge,2013-11-24 01:56:00,
2013-11-23 21:01:00,23.4,8.4,30.37,West,267,2.0,11.0,52,0.00,,,0.00,meteobridge,2013-11-24 02:01:00,
2013-11-23 21:06:00,23.2,7.7,30.37,WNW,296,6.0,11.0,51,0.00,,,0.00,meteobridge,2013-11-24 02:06:00,
2013-11-23 21:11:00,23.2,8.6,30.37,NE,37,2.9,4.9,53,0.00,,,0.00,meteobridge,2013-11-24 02:11:00,
2013-11-23 21:16:00,23.0,13.6,30.38,NNE,24,4.9,12.1,67,0.00,,,0.00,meteobridge,2013-11-24 02:16:00,
2013-11-23 21:21:00,21.9,15.4,30.38,WNW,292,8.1,8.9,76,0.00,,,0.00,meteobridge,2013-11-24 02:21:00,
2013-11-23 21:26:00,21.0,15.8,30.38,North,10,4.9,6.9,80,0.00,,,0.00,meteobridge,2013-11-24 02:26:00,
2013-11-23 21:31:00,20.5,16.2,30.39,NNW,331,2.9,4.9,83,0.00,,,0.00,meteobridge,2013-11-24 02:31:00,
2013-11-23 21:36:00,20.3,16.2,30.39,WNW,295,4.0,8.9,84,0.00,,,0.00,meteobridge,2013-11-24 02:36:00,
2013-11-23 21:41:00,20.1,16.3,30.39,NW,320,6.0,10.1,85,0.00,,,0.00,meteobridge,2013-11-24 02:41:00,
2013-11-23 21:47:00,20.1,15.8,30.38,WNW,299,2.0,6.0,83,0.00,,,0.00,meteobridge,2013-11-24 02:47:00,
2013-11-23 21:52:00,20.1,15.8,30.38,NE,40,2.9,4.0,83,0.00,,,0.00,meteobridge,2013-11-24 02:52:00,
2013-11-23 21:57:00,20.1,15.3,30.38,NW,313,4.9,6.0,81,0.00,,,0.00,meteobridge,2013-11-24 02:57:00,
2013-11-23 22:02:00,20.7,14.5,30.39,WNW,296,14.1,15.0,77,0.00,,,0.00,meteobridge,2013-11-24 03:02:00,
2013-11-23 22:07:00,20.5,15.3,30.39,NW,308,2.9,8.1,80,0.00,,,0.00,meteobridge,2013-11-24 03:07:00,
2013-11-23 22:12:00,20.5,15.3,30.39,NNW,331,2.0,8.1,80,0.00,,,0.00,meteobridge,2013-11-24 03:12:00,
2013-11-23 22:17:00,20.5,15.1,30.39,WNW,294,4.0,8.1,79,0.00,,,0.00,meteobridge,2013-11-24 03:17:00,
2013-11-23 22:22:00,20.8,13.3,30.39,NW,326,6.0,15.0,72,0.00,,,0.00,meteobridge,2013-11-24 03:22:00,
2013-11-23 22:27:00,21.2,10.6,30.39,WNW,301,13.0,13.0,63,0.00,,,0.00,meteobridge,2013-11-24 03:27:00,
2013-11-23 22:32:00,21.6,11.3,30.39,WNW,296,4.9,11.0,64,0.00,,,0.00,meteobridge,2013-11-24 03:32:00,
2013-11-23 22:37:00,21.4,10.4,30.39,WNW,290,2.0,8.1,62,0.00,,,0.00,meteobridge,2013-11-24 03:37:00,
2013-11-23 22:42:00,21.6,10.2,30.39,WNW,302,2.0,8.1,61,0.00,,,0.00,meteobridge,2013-11-24 03:42:00,
2013-11-23 22:47:00,21.6,10.2,30.40,WNW,293,4.9,8.1,61,0.00,,,0.00,meteobridge,2013-11-24 03:47:00,
2013-11-23 22:52:00,21.6,10.2,30.40,WNW,292,4.9,10.1,61,0.00,,,0.00,meteobridge,2013-11-24 03:52:00,
2013-11-23 22:57:00,21.6,10.6,30.40,West,261,0.9,2.9,62,0.00,,,0.00,meteobridge,2013-11-24 03:57:00,
2013-11-23 23:02:00,21.4,11.1,30.40,NW,317,0.9,10.1,64,0.00,,,0.00,meteobridge,2013-11-24 04:02:00,
2013-11-23 23:07:00,21.6,10.6,30.40,ENE,57,4.9,8.9,62,0.00,,,0.00,meteobridge,2013-11-24 04:07:00,
2013-11-23 23:12:00,21.4,10.4,30.40,WNW,299,2.9,8.9,62,0.00,,,0.00,meteobridge,2013-11-24 04:12:00,
2013-11-23 23:18:00,21.4,11.1,30.40,North,5,4.9,8.9,64,0.00,,,0.00,meteobridge,2013-11-24 04:18:00,
2013-11-23 23:23:00,21.4,11.1,30.40,NW,321,4.9,12.1,64,0.00,,,0.00,meteobridge,2013-11-24 04:23:00,
2013-11-23 23:28:00,21.2,10.9,30.40,NW,304,4.0,14.1,64,0.00,,,0.00,meteobridge,2013-11-24 04:28:00,
2013-11-23 23:33:00,21.2,10.9,30.40,WNW,289,4.0,8.1,64,0.00,,,0.00,meteobridge,2013-11-24 04:33:00,
2013-11-23 23:38:00,21.0,11.1,30.40,WNW,301,2.9,8.1,65,0.00,,,0.00,meteobridge,2013-11-24 04:38:00,
2013-11-23 23:43:00,21.0,11.5,30.40,NW,307,4.9,6.9,66,0.00,,,0.00,meteobridge,2013-11-24 04:43:00,
2013-11-23 23:48:00,20.8,10.6,30.40,NW,315,2.9,11.0,64,0.00,,,0.00,meteobridge,2013-11-24 04:48:00,
2013-11-23 23:53:00,21.0,10.4,30.40,WNW,286,6.0,10.1,63,0.00,,,0.00,meteobridge,2013-11-24 04:53:00,
2013-11-23 23:58:00,21.0,10.0,30.40,West,281,6.0,8.9,62,0.00,,,0.00,meteobridge,2013-11-24 04:58:00,